createdAt,value
2022-09-27T00:02:55.232Z,13.20
2022-09-27T00:06:23.179Z,13.20
2022-09-27T00:09:25.406Z,13.10
2022-09-27T00:12:30.147Z,13.10
2022-09-27T00:15:32.824Z,13.20
2022-09-27T00:18:35.063Z,13.30
2022-09-27T00:21:37.320Z,13.20
2022-09-27T00:24:42.834Z,13.20
2022-09-27T00:27:44.946Z,13.20
2022-09-27T00:30:49.752Z,13.30
2022-09-27T00:33:54.063Z,13.10
2022-09-27T00:36:57.240Z,13.30
2022-09-27T00:39:59.220Z,13.20
2022-09-27T00:43:01.608Z,13.20
2022-09-27T00:46:04.122Z,13.20
2022-09-27T00:49:25.701Z,13.30
2022-09-27T00:52:50.560Z,13.30
2022-09-27T00:56:07.142Z,13.40
2022-09-27T00:59:20.783Z,13.40
2022-09-27T01:02:25.502Z,13.40
2022-09-27T01:05:28.890Z,13.40
2022-09-27T01:08:30.945Z,13.30
2022-09-27T01:11:51.312Z,13.40
2022-09-27T01:15:25.794Z,13.40
2022-09-27T01:18:41.235Z,13.40
2022-09-27T01:21:51.480Z,13.40
2022-09-27T01:25:31.750Z,13.40
2022-09-27T01:29:10.787Z,13.30
2022-09-27T01:32:33.265Z,13.30
2022-09-27T01:35:45.465Z,13.30
2022-09-27T01:39:20.067Z,13.30
2022-09-27T01:42:53.813Z,13.30
2022-09-27T01:46:05.487Z,13.10
2022-09-27T01:50:00.608Z,13.20
2022-09-27T01:53:50.109Z,13.30
2022-09-27T01:57:13.772Z,13.10
2022-09-27T02:00:16.376Z,13.30
2022-09-27T02:03:23.914Z,13.30
2022-09-27T02:07:01.266Z,13.40
2022-09-27T02:10:17.941Z,13.30
2022-09-27T02:13:52.663Z,13.20
2022-09-27T02:17:31.031Z,13.20
2022-09-27T02:20:44.988Z,13.20
2022-09-27T02:23:52.470Z,13.10
2022-09-27T02:27:07.103Z,13.20
2022-09-27T02:30:11.779Z,13.30
2022-09-27T02:33:15.429Z,13.10
2022-09-27T02:36:18.524Z,13.10
2022-09-27T02:39:21.751Z,13.20
2022-09-27T02:42:30.912Z,13.20
2022-09-27T02:45:41.628Z,13.00
2022-09-27T02:48:58.371Z,13.00
2022-09-27T02:52:19.548Z,13.10
2022-09-27T02:56:06.824Z,13.10
2022-09-27T02:59:48.860Z,13.10
2022-09-27T03:03:17.956Z,13.10
2022-09-27T03:06:29.370Z,13.20
2022-09-27T03:09:43.755Z,13.10
2022-09-27T03:12:46.075Z,13.10
2022-09-27T03:15:52.523Z,13.10
2022-09-27T03:18:54.362Z,13.00
2022-09-27T03:22:16.912Z,13.20
2022-09-27T03:25:18.886Z,13.20
2022-09-27T03:28:22.224Z,13.10
2022-09-27T03:31:24.450Z,13.10
2022-09-27T03:34:46.489Z,13.20
2022-09-27T03:37:48.322Z,13.00
2022-09-27T03:40:50.303Z,13.10
2022-09-27T03:43:52.659Z,13.10
2022-09-27T03:46:54.708Z,13.00
2022-09-27T03:49:56.671Z,13.10
2022-09-27T03:52:58.656Z,13.00
2022-09-27T03:56:01.646Z,13.00
2022-09-27T03:59:04.726Z,13.00
2022-09-27T04:02:29.659Z,13.10
2022-09-27T04:05:50.023Z,13.10
2022-09-27T04:08:56.389Z,13.00
2022-09-27T04:12:05.252Z,13.10
2022-09-27T04:15:09.054Z,13.20
2022-09-27T04:18:26.004Z,13.10
2022-09-27T04:21:30.535Z,13.00
2022-09-27T04:24:32.803Z,13.00
2022-09-27T04:27:52.479Z,13.00
2022-09-27T04:30:55.291Z,13.00
2022-09-27T04:34:06.159Z,13.10
2022-09-27T04:37:10.451Z,13.20
2022-09-27T04:40:14.724Z,13.20
2022-09-27T04:43:17.433Z,13.10
2022-09-27T04:46:19.519Z,13.10
2022-09-27T04:49:21.466Z,13.20
2022-09-27T04:52:26.334Z,13.10
2022-09-27T04:55:28.369Z,13.10
2022-09-27T04:58:32.941Z,13.00
2022-09-27T05:01:34.845Z,13.00
2022-09-27T05:05:06.155Z,13.00
2022-09-27T05:08:11.870Z,12.90
2022-09-27T05:11:42.926Z,13.00
2022-09-27T05:14:59.561Z,13.10
2022-09-27T05:18:16.389Z,13.00
2022-09-27T05:21:41.294Z,12.90
2022-09-27T05:24:43.324Z,13.00
2022-09-27T05:27:45.561Z,12.90
2022-09-27T05:30:47.840Z,13.00
2022-09-27T05:33:54.608Z,13.00
2022-09-27T05:37:22.929Z,12.90
2022-09-27T05:40:41.944Z,12.90
2022-09-27T05:43:45.928Z,12.90
2022-09-27T05:46:49.071Z,12.90
2022-09-27T05:49:50.957Z,13.00
2022-09-27T05:52:53.260Z,13.00
2022-09-27T05:55:55.648Z,13.00
2022-09-27T05:59:06.137Z,13.00
2022-09-27T06:02:27.967Z,12.90
2022-09-27T06:05:51.314Z,13.00
2022-09-27T06:09:19.280Z,12.90
2022-09-27T06:12:22.630Z,12.90
2022-09-27T06:15:24.740Z,13.00
2022-09-27T06:18:27.108Z,12.90
2022-09-27T06:21:29.573Z,12.90
2022-09-27T06:24:32.902Z,12.90
2022-09-27T06:27:41.401Z,12.90
2022-09-27T06:30:55.699Z,12.90
2022-09-27T06:34:13.681Z,12.90
2022-09-27T06:37:16.073Z,13.00
2022-09-27T06:40:18.163Z,12.90
2022-09-27T06:43:31.623Z,12.90
2022-09-27T06:46:52.515Z,12.80
2022-09-27T06:50:23.547Z,12.90
2022-09-27T06:53:26.424Z,12.80
2022-09-27T06:56:28.372Z,12.90
2022-09-27T06:59:30.301Z,12.70
2022-09-27T07:03:01.389Z,12.80
2022-09-27T07:06:22.636Z,12.70
2022-09-27T07:09:30.092Z,12.80
2022-09-27T07:12:32.148Z,12.80
2022-09-27T07:15:41.794Z,12.90
2022-09-27T07:18:51.338Z,12.90
2022-09-27T07:21:53.340Z,13.00
2022-09-27T07:24:55.398Z,13.10
2022-09-27T07:28:06.427Z,13.20
2022-09-27T07:31:09.363Z,13.20
2022-09-27T07:34:11.734Z,13.30
2022-09-27T07:37:13.689Z,13.30
2022-09-27T07:40:15.984Z,13.40
2022-09-27T07:43:18.343Z,13.30
2022-09-27T07:46:20.928Z,13.30
2022-09-27T07:49:43.138Z,13.40
2022-09-27T07:53:05.348Z,13.60
2022-09-27T07:56:30.342Z,13.60
2022-09-27T07:59:33.260Z,13.70
2022-09-27T08:02:36.546Z,13.50
2022-09-27T08:05:39.115Z,13.50
2022-09-27T08:08:41.245Z,13.60
2022-09-27T08:11:44.091Z,13.60
2022-09-27T08:14:50.490Z,13.70
2022-09-27T08:17:53.597Z,13.50
2022-09-27T08:21:18.078Z,13.60
2022-09-27T08:24:44.903Z,13.90
2022-09-27T08:28:13.062Z,13.60
2022-09-27T08:31:18.972Z,13.80
2022-09-27T08:34:21.730Z,13.60
2022-09-27T08:37:23.567Z,13.70
2022-09-27T08:40:49.545Z,13.80
2022-09-27T08:44:15.343Z,13.60
2022-09-27T08:47:43.055Z,13.60
2022-09-27T08:50:46.724Z,13.50
2022-09-27T08:53:57.769Z,13.50
2022-09-27T08:57:12.539Z,13.40
2022-09-27T09:00:16.366Z,13.40
2022-09-27T09:03:23.205Z,13.30
2022-09-27T09:06:50.558Z,13.50
2022-09-27T09:10:11.433Z,13.60
2022-09-27T09:13:36.197Z,13.80
2022-09-27T09:16:51.370Z,13.90
2022-09-27T09:20:06.546Z,13.70
2022-09-27T09:23:39.563Z,13.90
2022-09-27T09:26:57.807Z,13.90
2022-09-27T09:30:05.818Z,13.90
2022-09-27T09:33:24.245Z,14.00
2022-09-27T09:36:35.163Z,14.00
2022-09-27T09:39:52.185Z,14.30
2022-09-27T09:43:03.326Z,14.40
2022-09-27T09:46:11.903Z,14.40
2022-09-27T09:49:22.827Z,14.40
2022-09-27T09:52:41.700Z,14.50
2022-09-27T09:55:52.383Z,14.60
2022-09-27T09:59:11.096Z,14.50
2022-09-27T10:02:27.386Z,13.80
2022-09-27T10:05:35.366Z,13.40
2022-09-27T10:08:41.588Z,13.50
2022-09-27T10:12:06.736Z,13.60
2022-09-27T10:15:19.651Z,13.70
2022-09-27T10:18:22.062Z,13.80
2022-09-27T10:21:29.896Z,13.90
2022-09-27T10:25:02.490Z,13.90
2022-09-27T10:28:32.647Z,14.30
2022-09-27T10:31:36.239Z,14.60
2022-09-27T10:34:48.710Z,14.20
2022-09-27T10:37:51.164Z,14.10
2022-09-27T10:41:15.219Z,14.00
2022-09-27T10:44:17.457Z,13.90
2022-09-27T10:47:25.512Z,13.40
2022-09-27T11:03:17.340Z,13.20
2022-09-27T11:06:23.179Z,13.00
2022-09-27T11:09:25.112Z,13.00
2022-09-27T11:12:27.881Z,12.90
2022-09-27T11:15:30.996Z,13.00
2022-09-27T11:18:32.857Z,13.40
2022-09-27T11:21:40.424Z,13.60
2022-09-27T11:25:02.497Z,13.70
2022-09-27T11:28:08.502Z,13.50
2022-09-27T11:31:24.944Z,13.30
2022-09-27T11:34:59.301Z,13.60
2022-09-27T11:38:53.217Z,13.70
2022-09-27T11:42:43.824Z,13.80
2022-09-27T11:46:20.580Z,14.00
2022-09-27T11:49:36.644Z,13.70
2022-09-27T11:53:08.719Z,14.00
2022-09-27T11:56:14.687Z,14.10
2022-09-27T11:59:59.304Z,14.50
2022-09-27T12:03:07.431Z,14.90
2022-09-27T12:06:13.573Z,14.90
2022-09-27T12:09:30.626Z,15.10
2022-09-27T12:12:36.398Z,15.60
2022-09-27T12:15:43.288Z,15.90
2022-09-27T12:18:51.482Z,15.90
2022-09-27T12:22:07.454Z,16.00
2022-09-27T12:25:21.097Z,16.40
2022-09-27T12:28:48.537Z,16.40
2022-09-27T12:32:04.247Z,16.60
2022-09-27T12:35:24.015Z,16.60
2022-09-27T12:38:44.073Z,16.80
2022-09-27T12:41:56.534Z,16.90
2022-09-27T12:45:15.690Z,16.60
2022-09-27T12:48:24.397Z,15.80
2022-09-27T12:51:42.899Z,15.60
2022-09-27T12:55:12.831Z,15.60
2022-09-27T12:58:23.268Z,15.70
2022-09-27T13:01:31.322Z,15.70
2022-09-27T13:05:07.262Z,15.50
2022-09-27T13:08:35.263Z,15.30
2022-09-27T13:11:46.954Z,15.10
2022-09-27T13:15:14.541Z,15.00
2022-09-27T13:18:36.414Z,15.00
2022-09-27T13:21:51.453Z,15.00
2022-09-27T13:25:50.600Z,15.00
2022-09-27T13:29:28.220Z,15.20
2022-09-27T13:32:33.869Z,15.20
2022-09-27T13:35:39.138Z,15.10
2022-09-27T13:39:09.810Z,15.10
2022-09-27T13:42:35.784Z,14.70
2022-09-27T13:45:50.865Z,14.80
2022-09-27T13:49:02.709Z,14.60
2022-09-27T13:52:35.884Z,14.50
2022-09-27T13:55:52.589Z,14.30
2022-09-27T13:59:18.176Z,14.20
2022-09-27T14:02:25.340Z,13.90
2022-09-27T14:05:41.802Z,14.00
2022-09-27T14:08:49.222Z,13.90
2022-09-27T14:11:59.071Z,13.90
2022-09-27T14:15:02.673Z,13.80
2022-09-27T14:18:12.242Z,13.80
2022-09-27T14:21:47.982Z,13.70
2022-09-27T14:24:57.335Z,13.70
2022-09-27T14:28:03.915Z,13.70
2022-09-27T14:31:18.733Z,14.00
2022-09-27T14:34:46.934Z,14.30
2022-09-27T14:37:52.938Z,14.50
2022-09-27T14:41:02.294Z,14.30
2022-09-27T14:44:04.322Z,14.20
2022-09-27T14:47:10.122Z,14.20
2022-09-27T14:50:21.946Z,14.20
2022-09-27T14:53:25.723Z,14.20
2022-09-27T14:56:36.428Z,14.00
2022-09-27T14:59:42.058Z,14.10
2022-09-27T15:02:44.467Z,14.20
2022-09-27T15:05:46.956Z,14.30
2022-09-27T15:08:49.565Z,14.40
2022-09-27T15:11:58.292Z,14.40
2022-09-27T15:15:00.326Z,14.20
2022-09-27T15:18:04.116Z,14.00
2022-09-27T15:21:08.060Z,14.20
2022-09-27T15:24:36.732Z,14.10
2022-09-27T15:27:38.777Z,14.20
2022-09-27T15:30:43.433Z,14.30
2022-09-27T15:33:55.940Z,14.20
2022-09-27T15:36:59.357Z,14.40
2022-09-27T15:40:39.877Z,14.60
2022-09-27T15:43:46.375Z,14.60
2022-09-27T15:46:48.467Z,14.70
2022-09-27T15:49:50.342Z,14.60
2022-09-27T15:52:57.816Z,14.50
2022-09-27T15:56:00.315Z,14.40
2022-09-27T15:59:02.532Z,14.40
2022-09-27T16:02:14.315Z,14.30
2022-09-27T16:05:16.213Z,14.30
2022-09-27T16:08:18.108Z,14.40
2022-09-27T16:11:20.114Z,14.20
2022-09-27T16:14:22.028Z,14.20
2022-09-27T16:17:24.007Z,14.00
2022-09-27T16:20:27.343Z,14.20
2022-09-27T16:23:29.233Z,14.20
2022-09-27T16:26:31.660Z,14.20
2022-09-27T16:29:33.423Z,14.20
2022-09-27T16:32:39.930Z,14.10
2022-09-27T16:35:41.792Z,14.00
2022-09-27T16:38:43.821Z,14.00
2022-09-27T16:41:45.823Z,13.90
2022-09-27T16:44:47.703Z,13.90
2022-09-27T16:47:49.641Z,13.90
2022-09-27T16:50:51.471Z,13.80
2022-09-27T16:53:53.292Z,13.70
2022-09-27T16:56:59.285Z,13.70
2022-09-27T17:00:01.857Z,13.70
2022-09-27T17:03:03.770Z,13.80
2022-09-27T17:06:06.690Z,13.70
2022-09-27T17:09:08.668Z,13.70
2022-09-27T17:12:12.054Z,13.80
2022-09-27T17:15:14.999Z,13.70
2022-09-27T17:18:16.925Z,13.70
2022-09-27T17:21:18.942Z,13.70
2022-09-27T17:24:20.826Z,13.50
2022-09-27T17:27:27.093Z,13.50
2022-09-27T17:30:29.647Z,13.40
2022-09-27T17:33:31.532Z,13.40
2022-09-27T17:36:34.448Z,13.30
2022-09-27T17:39:36.483Z,13.00
2022-09-27T17:42:38.650Z,13.10
2022-09-27T17:45:40.450Z,13.10
2022-09-27T17:48:42.352Z,13.10
2022-09-27T17:51:48.451Z,13.00
2022-09-27T17:54:50.285Z,12.90
2022-09-27T17:57:52.149Z,13.00
2022-09-27T18:00:55.705Z,12.80
2022-09-27T18:04:01.121Z,12.80
2022-09-27T18:07:03.068Z,12.80
2022-09-27T18:10:05.510Z,12.80
2022-09-27T18:13:07.497Z,12.80
2022-09-27T18:16:15.030Z,12.70
2022-09-27T18:19:17.326Z,12.70
2022-09-27T18:22:19.212Z,12.80
2022-09-27T18:25:21.070Z,12.70
2022-09-27T18:28:27.881Z,12.70
2022-09-27T18:31:29.825Z,12.70
2022-09-27T18:34:31.720Z,12.60
2022-09-27T18:37:33.576Z,12.70
2022-09-27T18:40:55.115Z,12.60
2022-09-27T18:44:03.840Z,12.70
2022-09-27T18:47:05.891Z,12.60
2022-09-27T18:50:08.293Z,12.70
2022-09-27T18:53:10.162Z,12.60
2022-09-27T18:56:14.731Z,12.60
2022-09-27T18:59:17.538Z,12.50
2022-09-27T19:02:20.298Z,12.50
2022-09-27T19:05:22.319Z,12.50
2022-09-27T19:08:24.330Z,12.40
2022-09-27T19:11:27.533Z,12.40
2022-09-27T19:14:29.544Z,12.40
2022-09-27T19:17:32.551Z,12.50
2022-09-27T19:20:35.040Z,12.50
2022-09-27T19:23:38.781Z,12.40
2022-09-27T19:26:43.855Z,12.30
2022-09-27T19:29:47.758Z,12.30
2022-09-27T19:32:49.701Z,12.40
2022-09-27T19:35:55.443Z,12.40
2022-09-27T19:38:57.551Z,12.40
2022-09-27T19:45:15.394Z,12.50
2022-09-27T19:48:17.758Z,12.40
2022-09-27T19:51:25.399Z,12.30
2022-09-27T19:54:27.447Z,12.40
2022-09-27T19:57:29.725Z,12.30
2022-09-27T20:00:32.014Z,12.30
2022-09-27T20:03:36.329Z,12.30
2022-09-27T20:06:38.639Z,12.30
2022-09-27T20:09:41.282Z,12.20
2022-09-27T20:12:44.592Z,12.20
2022-09-27T20:15:46.671Z,12.20
2022-09-27T20:18:50.651Z,12.30
2022-09-27T20:21:52.720Z,12.10
2022-09-27T20:24:54.779Z,12.40
2022-09-27T20:27:58.306Z,12.40
2022-09-27T20:31:02.861Z,12.30
2022-09-27T20:34:06.939Z,12.40
2022-09-27T20:37:08.941Z,12.30
2022-09-27T20:40:11.201Z,12.40
2022-09-27T20:43:13.159Z,12.40
2022-09-27T20:46:17.507Z,12.40
2022-09-27T20:49:20.281Z,12.40
2022-09-27T20:52:22.165Z,12.40
2022-09-27T20:55:24.298Z,12.50
2022-09-27T20:58:28.795Z,12.50
2022-09-27T21:01:32.454Z,12.40
2022-09-27T21:04:34.411Z,12.50
2022-09-27T21:07:36.623Z,12.50
2022-09-27T21:10:40.545Z,12.60
2022-09-27T21:13:44.021Z,12.50
2022-09-27T21:16:46.225Z,12.50
2022-09-27T21:19:48.240Z,12.50
2022-09-27T21:22:51.007Z,12.60
2022-09-27T21:26:05.434Z,12.60
2022-09-27T21:29:09.575Z,12.80
2022-09-27T21:32:11.503Z,12.80
2022-09-27T21:35:13.847Z,12.70
2022-09-27T21:41:31.738Z,12.80
2022-09-27T21:44:33.842Z,12.80
2022-09-27T21:47:35.764Z,12.80
2022-09-27T21:50:38.072Z,12.70
2022-09-27T21:53:42.109Z,12.80
2022-09-27T21:56:44.942Z,12.70
2022-09-27T21:59:47.341Z,12.80
2022-09-27T22:02:49.433Z,12.70
2022-09-27T22:05:51.664Z,12.60
2022-09-27T22:08:55.249Z,12.80
2022-09-27T22:11:57.236Z,12.80
2022-09-27T22:14:59.152Z,12.80
2022-09-27T22:18:01.497Z,12.60
2022-09-27T22:21:08.898Z,12.70
2022-09-27T22:24:16.136Z,12.70
2022-09-27T22:27:18.531Z,12.80
2022-09-27T22:30:23.796Z,12.90
2022-09-27T22:33:25.848Z,12.90
2022-09-27T22:36:28.814Z,12.90
2022-09-27T22:39:30.677Z,12.80
2022-09-27T22:42:33.073Z,12.90
2022-09-27T22:45:35.327Z,12.90
2022-09-27T22:48:37.539Z,12.90
2022-09-27T22:51:39.996Z,12.80
2022-09-27T22:54:42.067Z,12.90
2022-09-27T22:57:44.114Z,12.90
2022-09-27T23:00:46.242Z,12.90
2022-09-27T23:03:50.083Z,12.80
2022-09-27T23:06:52.097Z,12.90
2022-09-27T23:09:54.100Z,12.90
2022-09-27T23:12:56.219Z,12.90
2022-09-27T23:16:01.329Z,12.90
2022-09-27T23:19:04.469Z,13.00
2022-09-27T23:22:07.021Z,12.90
2022-09-27T23:25:09.688Z,13.00
2022-09-27T23:28:11.729Z,13.00
2022-09-27T23:31:16.251Z,13.00
2022-09-27T23:34:18.229Z,12.90
2022-09-27T23:37:20.318Z,13.00
2022-09-27T23:40:22.253Z,13.00
2022-09-27T23:43:25.218Z,13.00
2022-09-27T23:46:27.233Z,13.00
2022-09-27T23:49:29.160Z,13.00
2022-09-27T23:52:31.064Z,13.00
2022-09-27T23:55:32.931Z,13.00
2022-09-27T23:58:40.373Z,12.90
